Terminal Aerodrome Forecast
Issued by NWS

Home | Current Version | Previous Version | Text Only | Print | Product List | Glossary Off
Versions: 1 2 3 4 5 6 7 8 9 10 11 12 13 14 15 16 17 18 19 20 21 22 23 24 25 26 27 28 29 30 31

000
FTUS43 KLOT 202320
TAFMDW
TAF
KMDW 202320Z 2100/2124 12006KT 1 1/2SM BR OVC005
     FM210200 14006KT 1SM -DZ BR OVC003
      TEMPO 2104/2108 3/4SM BR OVC002
     FM211300 17008KT 1SM BR OVC003
     FM211500 18011KT 3SM BR OVC007
     FM211700 19012G18KT P6SM SCT009 BKN015=

USA.gov is the U.S. government's official web portal to all federal, state and local government web resources and services.